createdAt,value
2022-09-09T00:00:11.326Z,187.85
2022-09-09T00:05:43.161Z,189.15
2022-09-09T00:13:35.179Z,191.03
2022-09-09T00:19:06.520Z,193.05
2022-09-09T00:24:37.934Z,193.39
2022-09-09T00:30:09.778Z,196.52
2022-09-09T00:41:10.934Z,199.51
2022-09-09T00:46:42.872Z,199.26
2022-09-09T00:52:14.494Z,198.18
2022-09-09T00:57:46.755Z,194.77
2022-09-09T01:03:18.602Z,195.70
2022-09-09T01:08:50.284Z,195.00
2022-09-09T01:16:41.941Z,197.23
2022-09-09T01:22:14.226Z,198.66
2022-09-09T01:24:37.283Z,201.09
2022-09-09T01:30:08.692Z,199.87
2022-09-09T01:35:40.359Z,198.66
2022-09-09T01:46:43.742Z,200.48
2022-09-09T01:52:15.776Z,199.38
2022-09-09T01:57:47.708Z,198.66
2022-09-09T02:03:19.576Z,198.30
2022-09-09T02:08:51.205Z,198.06
2022-09-09T02:14:22.605Z,198.66
2022-09-09T02:19:54.510Z,198.66
2022-09-09T02:25:26.142Z,198.42
2022-09-09T02:30:57.890Z,198.06
2022-09-09T02:36:29.009Z,197.58
2022-09-09T02:42:00.691Z,197.82
2022-09-09T02:47:32.360Z,196.52
2022-09-09T02:53:04.059Z,197.23
2022-09-09T02:58:36.388Z,197.11
2022-09-09T03:04:07.642Z,197.82
2022-09-09T03:09:39.326Z,197.11
2022-09-09T03:15:11.310Z,199.51
2022-09-09T03:20:42.990Z,200.11
2022-09-09T03:26:14.723Z,200.24
2022-09-09T03:31:46.556Z,197.46
2022-09-09T03:37:18.023Z,197.46
2022-09-09T03:42:49.539Z,200.36
2022-09-09T03:48:21.384Z,199.51
2022-09-09T03:53:53.158Z,196.99
2022-09-09T03:59:25.261Z,196.05
2022-09-09T04:04:56.715Z,195.70
2022-09-09T04:10:28.553Z,195.00
2022-09-09T04:16:00.252Z,194.31
2022-09-09T04:21:32.065Z,193.28
2022-09-09T04:23:55.622Z,195.70
2022-09-09T04:29:27.074Z,196.63
2022-09-09T04:34:58.899Z,194.88
2022-09-09T04:40:30.641Z,193.85
2022-09-09T04:46:02.492Z,192.60
2022-09-09T04:51:33.746Z,191.47
2022-09-09T04:57:05.817Z,190.69
2022-09-09T05:02:37.733Z,190.80
2022-09-09T05:08:09.529Z,190.69
2022-09-09T05:13:41.685Z,189.04
2022-09-09T05:19:13.061Z,190.58
2022-09-09T05:24:44.924Z,190.03
2022-09-09T05:30:16.964Z,189.26
2022-09-09T05:35:48.581Z,187.75
2022-09-09T05:41:20.351Z,185.73
2022-09-09T05:46:51.963Z,184.89
2022-09-09T05:52:23.875Z,185.01
2022-09-09T05:57:55.658Z,183.99
2022-09-09T06:03:27.333Z,185.01
2022-09-09T06:08:58.616Z,184.39
2022-09-09T06:14:29.973Z,182.38
2022-09-09T06:20:01.766Z,182.78
2022-09-09T06:25:33.639Z,183.18
2022-09-09T06:36:37.112Z,181.58
2022-09-09T06:42:08.946Z,180.02
2022-09-09T06:47:40.485Z,179.82
2022-09-09T06:53:11.767Z,180.02
2022-09-09T06:58:43.041Z,178.10
2022-09-09T07:04:14.711Z,177.53
2022-09-09T07:09:46.205Z,176.96
2022-09-09T07:20:49.357Z,170.98
2022-09-09T07:26:20.741Z,170.46
2022-09-09T07:31:52.560Z,166.21
2022-09-09T07:37:23.993Z,168.56
2022-09-09T07:42:55.967Z,167.21
2022-09-09T07:48:27.536Z,166.88
2022-09-09T07:53:59.602Z,165.22
2022-09-09T08:05:03.337Z,165.88
2022-09-09T08:10:34.899Z,164.57
2022-09-09T08:16:06.582Z,163.60
2022-09-09T08:21:38.441Z,165.22
2022-09-09T08:27:10.123Z,164.09
2022-09-09T08:32:44.865Z,163.44
2022-09-09T08:38:13.897Z,162.49
2022-09-09T08:43:45.533Z,161.08
2022-09-09T08:49:17.292Z,162.01
2022-09-09T08:54:52.395Z,160.46
2022-09-09T09:00:20.611Z,159.54
2022-09-09T09:05:52.217Z,158.32
2022-09-09T09:11:24.024Z,156.69
2022-09-09T09:16:56.059Z,154.37
2022-09-09T09:22:27.537Z,153.24
2022-09-09T09:27:58.988Z,151.57
2022-09-09T09:44:33.911Z,145.74
2022-09-09T09:50:05.605Z,146.00
2022-09-09T09:55:36.963Z,144.86
2022-09-09T10:01:08.964Z,142.99
2022-09-09T10:06:40.673Z,141.90
2022-09-09T10:12:12.607Z,142.02
2022-09-09T10:17:44.343Z,140.94
2022-09-09T10:23:16.042Z,139.76
2022-09-09T10:28:47.688Z,139.29
2022-09-09T10:34:19.408Z,138.95
2022-09-09T10:39:51.391Z,136.00
2022-09-09T10:45:23.228Z,134.79
2022-09-09T10:51:04.726Z,133.82
2022-09-09T10:56:26.847Z,132.76
2022-09-09T11:01:58.419Z,131.50
2022-09-09T11:07:29.716Z,129.06
2022-09-09T11:13:01.278Z,129.26
2022-09-09T11:18:32.974Z,127.58
2022-09-09T11:24:04.798Z,126.61
2022-09-09T11:29:36.635Z,124.53
2022-09-09T11:35:08.227Z,124.44
2022-09-09T11:40:39.787Z,122.34
2022-09-09T11:46:11.638Z,121.01
2022-09-09T11:51:43.359Z,120.75
2022-09-09T11:57:15.194Z,119.11
2022-09-09T12:02:46.905Z,118.69
2022-09-09T12:08:18.670Z,117.85
2022-09-09T12:13:50.244Z,118.43
2022-09-09T12:19:23.371Z,116.78
2022-09-09T12:24:53.715Z,116.78
2022-09-09T12:30:25.314Z,116.45
2022-09-09T12:35:57.147Z,115.48
2022-09-09T12:41:28.995Z,115.48
2022-09-09T12:52:30.027Z,114.30
2022-09-09T12:58:02.103Z,116.13
2022-09-09T13:03:33.745Z,115.97
2022-09-09T13:09:05.575Z,115.25
2022-09-09T13:14:37.235Z,113.44
2022-09-09T13:20:08.878Z,113.37
2022-09-09T13:25:43.888Z,112.15
2022-09-09T13:31:14.010Z,112.07
2022-09-09T13:36:46.090Z,111.92
2022-09-09T13:42:18.125Z,110.59
2022-09-09T13:53:21.635Z,111.40
2022-09-09T13:58:53.355Z,112.60
2022-09-09T14:04:25.214Z,112.45
2022-09-09T14:09:56.911Z,111.62
2022-09-09T14:15:28.857Z,112.83
2022-09-09T14:21:01.008Z,113.29
2022-09-09T14:26:33.081Z,114.46
2022-09-09T14:32:07.374Z,112.68
2022-09-09T14:37:36.877Z,115.17
2022-09-09T14:43:08.818Z,114.77
2022-09-09T14:48:41.012Z,117.35
2022-09-09T14:54:12.487Z,115.81
2022-09-09T14:59:44.051Z,116.61
2022-09-09T15:02:07.272Z,119.79
2022-09-09T15:07:39.005Z,121.90
2022-09-09T15:13:10.474Z,121.28
2022-09-09T15:18:42.058Z,120.49
2022-09-09T15:24:13.431Z,122.25
2022-09-09T15:29:45.327Z,122.70
2022-09-09T15:35:17.089Z,119.97
2022-09-09T15:40:48.806Z,120.40
2022-09-09T15:46:20.667Z,120.84
2022-09-09T15:51:52.617Z,120.84
2022-09-09T15:57:24.256Z,121.72
2022-09-09T16:02:56.022Z,121.63
2022-09-09T16:10:49.667Z,125.28
2022-09-09T16:16:21.540Z,126.90
2022-09-09T16:21:53.495Z,126.42
2022-09-09T16:27:25.206Z,126.42
2022-09-09T16:32:56.971Z,125.47
2022-09-09T16:38:28.752Z,126.32
2022-09-09T16:44:00.783Z,127.00
2022-09-09T16:49:32.244Z,127.09
2022-09-09T16:55:03.983Z,127.00
2022-09-09T17:00:35.258Z,128.66
2022-09-09T17:06:06.496Z,129.36
2022-09-09T17:11:37.837Z,130.57
2022-09-09T17:22:38.754Z,132.65
2022-09-09T17:28:10.421Z,132.97
2022-09-09T17:33:41.957Z,135.12
2022-09-09T17:39:13.386Z,134.58
2022-09-09T17:44:44.824Z,135.89
2022-09-09T17:50:16.577Z,137.46
2022-09-09T17:55:52.505Z,139.06
2022-09-09T18:01:19.624Z,138.83
2022-09-09T18:06:50.936Z,140.47
2022-09-09T18:12:22.031Z,140.00
2022-09-09T18:17:53.475Z,138.95
2022-09-09T18:23:25.311Z,141.54
2022-09-09T18:28:57.040Z,142.87
2022-09-09T18:34:29.038Z,143.98
2022-09-09T18:40:00.476Z,145.74
2022-09-09T18:45:32.029Z,146.25
2022-09-09T18:51:03.952Z,147.03
2022-09-09T18:56:35.872Z,147.94
2022-09-09T19:02:07.586Z,147.94
2022-09-09T19:07:39.235Z,149.93
2022-09-09T19:13:10.940Z,152.12
2022-09-09T19:18:42.752Z,154.51
2022-09-09T19:24:14.626Z,156.69
2022-09-09T19:29:46.157Z,157.43
2022-09-09T19:35:17.406Z,159.38
2022-09-09T19:46:20.734Z,162.65
2022-09-09T19:51:52.330Z,165.06
2022-09-09T19:57:23.819Z,165.71
2022-09-09T20:03:17.647Z,166.21
2022-09-09T20:08:27.039Z,166.21
2022-09-09T20:13:58.652Z,166.54
2022-09-09T20:19:30.012Z,169.59
2022-09-09T20:25:01.161Z,170.28
2022-09-09T20:30:32.537Z,171.15
2022-09-09T20:36:04.069Z,174.55
2022-09-09T20:41:35.654Z,174.55
2022-09-09T20:47:06.929Z,179.63
2022-09-09T20:58:07.667Z,181.58
2022-09-09T21:03:39.289Z,183.99
2022-09-09T21:09:10.695Z,183.99
2022-09-09T21:14:42.353Z,184.19
2022-09-09T21:17:06.404Z,186.89
2022-09-09T21:22:37.681Z,188.29
2022-09-09T21:28:08.993Z,187.64
2022-09-09T21:33:40.432Z,186.68
2022-09-09T21:39:11.665Z,184.99
2022-09-09T21:44:43.376Z,186.45
2022-09-09T21:52:27.699Z,187.00
2022-09-09T21:57:59.235Z,189.81
2022-09-09T22:03:30.405Z,190.25
2022-09-09T22:09:01.659Z,190.14
2022-09-09T22:14:33.022Z,189.04
2022-09-09T22:20:04.487Z,187.96
2022-09-09T22:22:28.165Z,189.70
2022-09-09T22:27:59.536Z,190.36
2022-09-09T22:33:30.913Z,190.25
2022-09-09T22:39:02.092Z,188.61
2022-09-09T22:44:33.532Z,188.07
2022-09-09T22:50:05.357Z,189.15
2022-09-09T22:55:36.802Z,188.29
2022-09-09T23:01:08.404Z,189.15
2022-09-09T23:06:39.636Z,188.72
2022-09-09T23:12:11.006Z,190.14
2022-09-09T23:17:42.521Z,190.36
2022-09-09T23:23:14.253Z,190.03
2022-09-09T23:28:45.783Z,191.25
2022-09-09T23:34:17.229Z,193.05
2022-09-09T23:39:48.669Z,194.88
2022-09-09T23:45:20.651Z,199.26
2022-09-09T23:50:52.057Z,201.34
2022-09-09T23:56:23.481Z,199.63
